Beersheba, Israel
Current Conditions -  °F | °C
As of 5:20 PM on Saturday 25 Oct 2014 (Local Time) from LLBG Reporting Station
Clear Clear  
Wind Chill: 26°   Ceiling: Unl
Heat Index: 27°   Visibility: 6mi
Dew Point: 16°   Wind: 9mph
Humidity: 54%   Direction: 310°NW
Pressure: 29.94"   Gusts: NA
Location:  31.25°N, 34.8°E
Report Text: LLBG 251420Z 31008KT CAVOK 26/16 Q1014 NOSIG
Loading
Personal Weather Stations






























Interactive Weather Map
Tropical Storm Tracking
New forecast layout! Learn more

10-Day Weather Forecast

Advertisements
Track Severe Weather on mobile